PWSweather.com
Personal Weather Stations
Station Observations
KMIEASTT1
Tawas Bay, East Tawas, MI 48730

Tawas BayEast Tawas, MI 48730

Lat: 44.28, Lon: -83.48

Elevation: 600

Station Type: Davis VantagePro

http://www.tawasbayweather.com

High Low Average
Temperature 30.4°F-0.9°C 16.2°F-8.8°C 22.1°F-5.5°C
Dew Point 29.1°F-1.6°C 12.2°F-11.0°C 19.5°F-6.9°C
Winds 9.0 mph 14.5 kmh Calm Calm 3.0 mph NW4.8 kmh NW
Wind Gusts 10.0 mph16.1 kmh 2.0 mph3.2 kmh 6.0 mph9.7 kmh
Humidity 96% 84% 90%
Pressure 29.87 in1011.5 mb 29.30 in992.2 mb -
Precipitation 0.01 in0.3 mm - -
Hour Temp Dew Point Humidity Winds Wind Gusts Pressure Precip Precip Rate Daily Precip Total
12:01 AM 31.1°F-0.5°C 29.8°F-1.2°C 95% 1.0 mph NNW1.6 kmh NNW 2.0 mph3.2 kmh 29.32 in992.9 mb 0.01 in0.3 mm 0.60 in/hr15.2 mm/hr 0.01 in0.3 mm
12:15 AM 31.0°F-0.6°C 29.7°F-1.3°C 95% 3.0 mph NNE4.8 kmh NNE 5.0 mph8.0 kmh 29.31 in992.6 mb 0.01 in0.3 mm 0.00 in/hr0.0 mm/hr 0.01 in0.3 mm
12:30 AM 30.7°F-0.7°C 29.4°F-1.4°C 95% 2.0 mph NNW3.2 kmh NNW 3.0 mph4.8 kmh 29.31 in992.6 mb 0.01 in0.3 mm 0.00 in/hr0.0 mm/hr 0.01 in0.3 mm
12:45 AM 30.6°F-0.8°C 29.3°F-1.5°C 95% 2.0 mph NW3.2 kmh NW 4.0 mph6.4 kmh 29.30 in992.2 mb 0.02 in0.5 mm 0.04 in/hr1.0 mm/hr 0.02 in0.5 mm
01:01 AM 30.4°F-0.9°C 29.1°F-1.6°C 95% 2.0 mph NW3.2 kmh NW 5.0 mph8.0 kmh 29.30 in992.2 mb 0.01 in0.3 mm 0.00 in/hr0.0 mm/hr 0.02 in0.5 mm
01:15 AM 30.1°F-1.1°C 28.8°F-1.8°C 95% 2.0 mph NW3.2 kmh NW 3.0 mph4.8 kmh 29.31 in992.6 mb 0.01 in0.3 mm 0.00 in/hr0.0 mm/hr 0.02 in0.5 mm
01:30 AM 29.8°F-1.2°C 28.6°F-1.9°C 95% 3.0 mph NNW4.8 kmh NNW 4.0 mph6.4 kmh 29.32 in992.9 mb 0.01 in0.3 mm 0.00 in/hr0.0 mm/hr 0.02 in0.5 mm
01:45 AM 29.7°F-1.3°C 28.5°F-1.9°C 95% Calm Calm 3.0 mph4.8 kmh 29.33 in993.2 mb 0.01 in0.3 mm 0.00 in/hr0.0 mm/hr 0.02 in0.5 mm
02:01 AM 29.7°F-1.3°C 28.5°F-1.9°C 95% Calm Calm 2.0 mph3.2 kmh 29.33 in993.2 mb 0.01 in0.3 mm 0.00 in/hr0.0 mm/hr 0.02 in0.5 mm
02:15 AM 29.7°F-1.3°C 28.5°F-1.9°C 95% 1.0 mph NW1.6 kmh NW 3.0 mph4.8 kmh 29.34 in993.6 mb 0.01 in0.3 mm 0.00 in/hr0.0 mm/hr 0.02 in0.5 mm
02:30 AM 29.6°F-1.3°C 28.4°F-2.0°C 95% 1.0 mph NNW1.6 kmh NNW 2.0 mph3.2 kmh 29.35 in993.9 mb 0.01 in0.3 mm 0.00 in/hr0.0 mm/hr 0.02 in0.5 mm
02:45 AM 29.4°F-1.4°C 28.2°F-2.1°C 95% 1.0 mph NW1.6 kmh NW 2.0 mph3.2 kmh 29.35 in993.9 mb 0.02 in0.5 mm 0.04 in/hr1.0 mm/hr 0.03 in0.8 mm
03:00 AM 29.2°F-1.6°C 28.0°F-2.2°C 95% 2.0 mph NW3.2 kmh NW 3.0 mph4.8 kmh 29.35 in993.9 mb 0.03 in0.8 mm 0.01 in/hr0.3 mm/hr 0.04 in1.0 mm
03:15 AM 29.2°F-1.6°C 28.2°F-2.1°C 96% 1.0 mph NW1.6 kmh NW 2.0 mph3.2 kmh 29.36 in994.2 mb 0.03 in0.8 mm 0.00 in/hr0.0 mm/hr 0.04 in1.0 mm
03:30 AM 28.9°F-1.7°C 27.7°F-2.4°C 95% 3.0 mph NW4.8 kmh NW 4.0 mph6.4 kmh 29.36 in994.2 mb 0.03 in0.8 mm 0.00 in/hr0.0 mm/hr 0.04 in1.0 mm
03:45 AM 28.6°F-1.9°C 27.4°F-2.6°C 95% 5.0 mph NW8.0 kmh NW 8.0 mph12.9 kmh 29.34 in993.6 mb 0.03 in0.8 mm 0.00 in/hr0.0 mm/hr 0.04 in1.0 mm
04:01 AM 28.4°F-2.0°C 27.2°F-2.7°C 95% 2.0 mph NW3.2 kmh NW 6.0 mph9.7 kmh 29.34 in993.6 mb 0.01 in0.3 mm 0.00 in/hr0.0 mm/hr 0.04 in1.0 mm
04:15 AM 28.4°F-2.0°C 27.2°F-2.7°C 95% 2.0 mph NW3.2 kmh NW 7.0 mph11.3 kmh 29.35 in993.9 mb 0.01 in0.3 mm 0.00 in/hr0.0 mm/hr 0.04 in1.0 mm
04:30 AM 28.3°F-2.1°C 27.1°F-2.7°C 95% 3.0 mph NW4.8 kmh NW 4.0 mph6.4 kmh 29.36 in994.2 mb 0.01 in0.3 mm 0.00 in/hr0.0 mm/hr 0.04 in1.0 mm
04:45 AM 28.2°F-2.1°C 26.7°F-2.9°C 94% 2.0 mph NW3.2 kmh NW 5.0 mph8.0 kmh 29.36 in994.2 mb 0.00 in0.0 mm 0.00 in/hr0.0 mm/hr 0.04 in1.0 mm
05:00 AM 27.9°F-2.3°C 26.4°F-3.1°C 94% 2.0 mph NW3.2 kmh NW 6.0 mph9.7 kmh 29.36 in994.2 mb 0.00 in0.0 mm 0.00 in/hr0.0 mm/hr 0.04 in1.0 mm
05:15 AM 27.6°F-2.4°C 26.1°F-3.3°C 94% 2.0 mph NNW3.2 kmh NNW 5.0 mph8.0 kmh 29.36 in994.2 mb 0.00 in0.0 mm 0.00 in/hr0.0 mm/hr 0.04 in1.0 mm
05:30 AM 27.4°F-2.6°C 25.7°F-3.5°C 93% 1.0 mph NW1.6 kmh NW 6.0 mph9.7 kmh 29.37 in994.6 mb 0.00 in0.0 mm 0.00 in/hr0.0 mm/hr 0.04 in1.0 mm
05:45 AM 27.2°F-2.7°C 25.5°F-3.6°C 93% 1.0 mph N1.6 kmh N 3.0 mph4.8 kmh 29.38 in994.9 mb 0.00 in0.0 mm 0.00 in/hr0.0 mm/hr 0.04 in1.0 mm
06:00 AM 26.9°F-2.8°C 25.2°F-3.8°C 93% 2.0 mph NW3.2 kmh NW 5.0 mph8.0 kmh 29.39 in995.3 mb 0.00 in0.0 mm 0.00 in/hr0.0 mm/hr 0.04 in1.0 mm
06:15 AM 26.3°F-3.2°C 24.3°F-4.3°C 92% 4.0 mph NNW6.4 kmh NNW 6.0 mph9.7 kmh 29.40 in995.6 mb 0.00 in0.0 mm 0.00 in/hr0.0 mm/hr 0.04 in1.0 mm
06:30 AM 25.1°F-3.8°C 22.9°F-5.1°C 91% 4.0 mph NW6.4 kmh NW 10.0 mph16.1 kmh 29.41 in995.9 mb 0.00 in0.0 mm 0.00 in/hr0.0 mm/hr 0.04 in1.0 mm
06:45 AM 24.6°F-4.1°C 22.6°F-5.2°C 92% 3.0 mph N4.8 kmh N 5.0 mph8.0 kmh 29.41 in995.9 mb 0.00 in0.0 mm 0.00 in/hr0.0 mm/hr 0.04 in1.0 mm
07:00 AM 24.4°F-4.2°C 22.7°F-5.2°C 93% 2.0 mph N3.2 kmh N 6.0 mph9.7 kmh 29.42 in996.3 mb 0.00 in0.0 mm 0.00 in/hr0.0 mm/hr 0.04 in1.0 mm
07:15 AM 24.3°F-4.3°C 22.3°F-5.4°C 92% 2.0 mph N3.2 kmh N 7.0 mph11.3 kmh 29.43 in996.6 mb 0.00 in0.0 mm 0.00 in/hr0.0 mm/hr 0.04 in1.0 mm
07:30 AM 23.7°F-4.6°C 21.5°F-5.8°C 91% 4.0 mph NW6.4 kmh NW 6.0 mph9.7 kmh 29.44 in997.0 mb 0.00 in0.0 mm 0.00 in/hr0.0 mm/hr 0.04 in1.0 mm
07:45 AM 23.4°F-4.8°C 21.2°F-6.0°C 91% 3.0 mph N4.8 kmh N 5.0 mph8.0 kmh 29.44 in997.0 mb 0.00 in0.0 mm 0.00 in/hr0.0 mm/hr 0.04 in1.0 mm
08:00 AM 23.3°F-4.8°C 21.1°F-6.1°C 91% 4.0 mph NNW6.4 kmh NNW 5.0 mph8.0 kmh 29.44 in997.0 mb 0.00 in0.0 mm 0.00 in/hr0.0 mm/hr 0.04 in1.0 mm
08:15 AM 22.9°F-5.1°C 20.7°F-6.3°C 91% 3.0 mph NNW4.8 kmh NNW 6.0 mph9.7 kmh 29.44 in997.0 mb 0.00 in0.0 mm 0.00 in/hr0.0 mm/hr 0.04 in1.0 mm
08:30 AM 22.7°F-5.2°C 20.5°F-6.4°C 91% 3.0 mph NNW4.8 kmh NNW 6.0 mph9.7 kmh 29.45 in997.3 mb 0.00 in0.0 mm 0.00 in/hr0.0 mm/hr 0.04 in1.0 mm
08:45 AM 22.2°F-5.4°C 19.7°F-6.8°C 90% 2.0 mph NW3.2 kmh NW 7.0 mph11.3 kmh 29.45 in997.3 mb 0.00 in0.0 mm 0.00 in/hr0.0 mm/hr 0.04 in1.0 mm
09:01 AM 21.8°F-5.7°C 19.3°F-7.1°C 90% 5.0 mph NW8.0 kmh NW 6.0 mph9.7 kmh 29.47 in998.0 mb 0.00 in0.0 mm 0.00 in/hr0.0 mm/hr 0.04 in1.0 mm
09:15 AM 21.5°F-5.8°C 18.8°F-7.3°C 89% 1.0 mph NW1.6 kmh NW 8.0 mph12.9 kmh 29.48 in998.3 mb 0.00 in0.0 mm 0.00 in/hr0.0 mm/hr 0.04 in1.0 mm
09:31 AM 21.3°F-5.9°C 18.6°F-7.4°C 89% 4.0 mph NW6.4 kmh NW 6.0 mph9.7 kmh 29.49 in998.6 mb 0.00 in0.0 mm 0.00 in/hr0.0 mm/hr 0.04 in1.0 mm
09:45 AM 20.9°F-6.2°C 18.2°F-7.7°C 89% 5.0 mph NNW8.0 kmh NNW 10.0 mph16.1 kmh 29.49 in998.6 mb 0.00 in0.0 mm 0.00 in/hr0.0 mm/hr 0.04 in1.0 mm
10:01 AM 20.6°F-6.3°C 17.9°F-7.8°C 89% 1.0 mph NNW1.6 kmh NNW 5.0 mph8.0 kmh 29.51 in999.3 mb 0.00 in0.0 mm 0.00 in/hr0.0 mm/hr 0.04 in1.0 mm
10:15 AM 20.4°F-6.4°C 17.4°F-8.1°C 88% 3.0 mph NW4.8 kmh NW 8.0 mph12.9 kmh 29.52 in999.7 mb 0.00 in0.0 mm 0.00 in/hr0.0 mm/hr 0.04 in1.0 mm
10:30 AM 20.2°F-6.6°C 17.2°F-8.2°C 88% 8.0 mph NW12.9 kmh NW 8.0 mph12.9 kmh 29.52 in999.7 mb 0.00 in0.0 mm 0.00 in/hr0.0 mm/hr 0.04 in1.0 mm
10:45 AM 20.0°F-6.7°C 16.8°F-8.4°C 87% 3.0 mph NW4.8 kmh NW 7.0 mph11.3 kmh 29.54 in1000.3 mb 0.00 in0.0 mm 0.00 in/hr0.0 mm/hr 0.04 in1.0 mm
11:01 AM 19.8°F-6.8°C 16.6°F-8.6°C 87% 1.0 mph NW1.6 kmh NW 6.0 mph9.7 kmh 29.54 in1000.3 mb 0.00 in0.0 mm 0.00 in/hr0.0 mm/hr 0.04 in1.0 mm
11:15 AM 19.7°F-6.8°C 16.5°F-8.6°C 87% 3.0 mph N4.8 kmh N 7.0 mph11.3 kmh 29.55 in1000.7 mb 0.00 in0.0 mm 0.00 in/hr0.0 mm/hr 0.04 in1.0 mm
11:30 AM 19.4°F-7.0°C 15.9°F-8.9°C 86% 2.0 mph N3.2 kmh N 6.0 mph9.7 kmh 29.56 in1001.0 mb 0.00 in0.0 mm 0.00 in/hr0.0 mm/hr 0.04 in1.0 mm
11:45 AM 19.6°F-6.9°C 15.8°F-9.0°C 85% 6.0 mph NNW9.7 kmh NNW 8.0 mph12.9 kmh 29.57 in1001.4 mb 0.00 in0.0 mm 0.00 in/hr0.0 mm/hr 0.04 in1.0 mm
12:01 PM 19.7°F-6.8°C 15.9°F-8.9°C 85% 4.0 mph NW6.4 kmh NW 5.0 mph8.0 kmh 29.58 in1001.7 mb 0.02 in0.5 mm 0.03 in/hr0.8 mm/hr 0.06 in1.5 mm
12:15 PM 19.7°F-6.8°C 16.2°F-8.8°C 86% 4.0 mph NW6.4 kmh NW 6.0 mph9.7 kmh 29.59 in1002.0 mb 0.02 in0.5 mm 0.00 in/hr0.0 mm/hr 0.06 in1.5 mm
12:30 PM 19.5°F-6.9°C 16.3°F-8.7°C 87% 2.0 mph NW3.2 kmh NW 6.0 mph9.7 kmh 29.60 in1002.4 mb 0.03 in0.8 mm 0.04 in/hr1.0 mm/hr 0.07 in1.8 mm
12:45 PM 19.1°F-7.2°C 16.1°F-8.8°C 88% 4.0 mph NNW6.4 kmh NNW 7.0 mph11.3 kmh 29.60 in1002.4 mb 0.04 in1.0 mm 0.04 in/hr1.0 mm/hr 0.08 in2.0 mm
01:00 PM 18.3°F-7.6°C 14.8°F-9.6°C 86% 3.0 mph NW4.8 kmh NW 10.0 mph16.1 kmh 29.61 in1002.7 mb 0.04 in1.0 mm 0.00 in/hr0.0 mm/hr 0.08 in2.0 mm
01:15 PM 17.3°F-8.2°C 14.9°F-9.5°C 90% 2.0 mph NW3.2 kmh NW 7.0 mph11.3 kmh 29.61 in1002.7 mb 0.03 in0.8 mm 0.00 in/hr0.0 mm/hr 0.08 in2.0 mm
01:31 PM 17.4°F-8.1°C 15.0°F-9.4°C 90% 4.0 mph NW6.4 kmh NW 5.0 mph8.0 kmh 29.62 in1003.0 mb 0.02 in0.5 mm 0.00 in/hr0.0 mm/hr 0.08 in2.0 mm
01:45 PM 17.7°F-7.9°C 15.5°F-9.2°C 91% 4.0 mph NW6.4 kmh NW 5.0 mph8.0 kmh 29.62 in1003.0 mb 0.03 in0.8 mm 0.04 in/hr1.0 mm/hr 0.09 in2.3 mm
02:01 PM 17.9°F-7.8°C 15.2°F-9.3°C 89% 2.0 mph NW3.2 kmh NW 7.0 mph11.3 kmh 29.63 in1003.4 mb 0.02 in0.5 mm 0.00 in/hr0.0 mm/hr 0.09 in2.3 mm
02:15 PM 18.0°F-7.8°C 14.8°F-9.6°C 87% 3.0 mph WNW4.8 kmh WNW 8.0 mph12.9 kmh 29.64 in1003.7 mb 0.02 in0.5 mm 0.00 in/hr0.0 mm/hr 0.09 in2.3 mm
02:31 PM 18.0°F-7.8°C 14.8°F-9.6°C 87% 2.0 mph N3.2 kmh N 7.0 mph11.3 kmh 29.65 in1004.1 mb 0.01 in0.3 mm 0.00 in/hr0.0 mm/hr 0.09 in2.3 mm
02:45 PM 17.9°F-7.8°C 15.0°F-9.4°C 88% 6.0 mph NW9.7 kmh NW 6.0 mph9.7 kmh 29.66 in1004.4 mb 0.01 in0.3 mm 0.00 in/hr0.0 mm/hr 0.09 in2.3 mm
03:01 PM 17.9°F-7.8°C 14.7°F-9.6°C 87% 4.0 mph W6.4 kmh W 6.0 mph9.7 kmh 29.67 in1004.7 mb 0.00 in0.0 mm 0.00 in/hr0.0 mm/hr 0.09 in2.3 mm
03:15 PM 18.2°F-7.7°C 14.7°F-9.6°C 86% 4.0 mph NNW6.4 kmh NNW 6.0 mph9.7 kmh 29.68 in1005.1 mb 0.02 in0.5 mm 0.09 in/hr2.3 mm/hr 0.11 in2.8 mm
03:30 PM 17.8°F-7.9°C 14.6°F-9.7°C 87% 4.0 mph NW6.4 kmh NW 8.0 mph12.9 kmh 29.69 in1005.4 mb 0.02 in0.5 mm 0.00 in/hr0.0 mm/hr 0.11 in2.8 mm
03:45 PM 17.1°F-8.3°C 13.6°F-10.2°C 86% 3.0 mph NW4.8 kmh NW 10.0 mph16.1 kmh 29.70 in1005.8 mb 0.03 in0.8 mm 0.04 in/hr1.0 mm/hr 0.12 in3.0 mm
04:01 PM 17.0°F-8.3°C 13.8°F-10.1°C 87% 5.0 mph NW8.0 kmh NW 6.0 mph9.7 kmh 29.71 in1006.1 mb 0.03 in0.8 mm 0.00 in/hr0.0 mm/hr 0.12 in3.0 mm
04:15 PM 17.1°F-8.3°C 13.9°F-10.1°C 87% 6.0 mph NW9.7 kmh NW 7.0 mph11.3 kmh 29.72 in1006.4 mb 0.03 in0.8 mm 0.00 in/hr0.0 mm/hr 0.12 in3.0 mm
04:31 PM 17.3°F-8.2°C 13.8°F-10.1°C 86% 9.0 mph NW14.5 kmh NW 9.0 mph14.5 kmh 29.73 in1006.8 mb 0.01 in0.3 mm 0.00 in/hr0.0 mm/hr 0.12 in3.0 mm
04:45 PM 17.4°F-8.1°C 13.9°F-10.1°C 86% 6.0 mph NNW9.7 kmh NNW 7.0 mph11.3 kmh 29.75 in1007.5 mb 0.01 in0.3 mm 0.00 in/hr0.0 mm/hr 0.12 in3.0 mm
05:01 PM 17.2°F-8.2°C 13.5°F-10.3°C 85% 5.0 mph NW8.0 kmh NW 10.0 mph16.1 kmh 29.76 in1007.8 mb 0.00 in0.0 mm 0.00 in/hr0.0 mm/hr 0.12 in3.0 mm
05:15 PM 17.1°F-8.3°C 13.9°F-10.1°C 87% 4.0 mph WNW6.4 kmh WNW 9.0 mph14.5 kmh 29.77 in1008.1 mb 0.01 in0.3 mm 0.04 in/hr1.0 mm/hr 0.13 in3.3 mm
05:30 PM 17.0°F-8.3°C 13.5°F-10.3°C 86% 6.0 mph NW9.7 kmh NW 9.0 mph14.5 kmh 29.79 in1008.8 mb 0.01 in0.3 mm 0.00 in/hr0.0 mm/hr 0.13 in3.3 mm
05:45 PM 17.0°F-8.3°C 13.5°F-10.3°C 86% 1.0 mph NNW1.6 kmh NNW 6.0 mph9.7 kmh 29.80 in1009.1 mb 0.01 in0.3 mm 0.00 in/hr0.0 mm/hr 0.13 in3.3 mm
06:01 PM 16.7°F-8.5°C 13.0°F-10.6°C 85% 5.0 mph NW8.0 kmh NW 7.0 mph11.3 kmh 29.81 in1009.5 mb 0.01 in0.3 mm 0.00 in/hr0.0 mm/hr 0.13 in3.3 mm
06:15 PM 16.5°F-8.6°C 12.5°F-10.8°C 84% 3.0 mph NW4.8 kmh NW 9.0 mph14.5 kmh 29.82 in1009.8 mb 0.01 in0.3 mm 0.00 in/hr0.0 mm/hr 0.13 in3.3 mm
06:30 PM 16.4°F-8.7°C 12.7°F-10.7°C 85% 3.0 mph NNW4.8 kmh NNW 7.0 mph11.3 kmh 29.83 in1010.2 mb 0.01 in0.3 mm 0.00 in/hr0.0 mm/hr 0.13 in3.3 mm
06:45 PM 16.4°F-8.7°C 12.7°F-10.7°C 85% 2.0 mph NW3.2 kmh NW 5.0 mph8.0 kmh 29.84 in1010.5 mb 0.00 in0.0 mm 0.00 in/hr0.0 mm/hr 0.13 in3.3 mm
07:01 PM 16.3°F-8.7°C 12.3°F-10.9°C 84% 3.0 mph NW4.8 kmh NW 6.0 mph9.7 kmh 29.85 in1010.8 mb 0.01 in0.3 mm 0.01 in/hr0.3 mm/hr 0.14 in3.6 mm
07:15 PM 16.3°F-8.7°C 12.3°F-10.9°C 84% 4.0 mph NW6.4 kmh NW 6.0 mph9.7 kmh 29.86 in1011.2 mb 0.02 in0.5 mm 0.04 in/hr1.0 mm/hr 0.15 in3.8 mm
07:30 PM 16.2°F-8.8°C 12.2°F-11.0°C 84% 3.0 mph NW4.8 kmh NW 6.0 mph9.7 kmh 29.87 in1011.5 mb 0.02 in0.5 mm 0.00 in/hr0.0 mm/hr 0.15 in3.8 mm
09:45 PM 16.3°F-8.7°C 13.1°F-10.5°C 87% 1.0 mph NNW1.6 kmh NNW 5.0 mph8.0 kmh 29.93 in1013.5 mb 0.00 in0.0 mm 0.00 in/hr0.0 mm/hr 0.15 in3.8 mm
10:01 PM 16.4°F-8.7°C 13.2°F-10.4°C 87% 1.0 mph N1.6 kmh N 5.0 mph8.0 kmh 29.93 in1013.5 mb 0.00 in0.0 mm 0.00 in/hr0.0 mm/hr 0.15 in3.8 mm
10:15 PM 16.5°F-8.6°C 13.3°F-10.4°C 87% 4.0 mph NW6.4 kmh NW 4.0 mph6.4 kmh 29.93 in1013.5 mb 0.00 in0.0 mm 0.00 in/hr0.0 mm/hr 0.15 in3.8 mm
10:30 PM 16.4°F-8.7°C 13.0°F-10.6°C 86% 2.0 mph NNW3.2 kmh NNW 5.0 mph8.0 kmh 29.94 in1013.9 mb 0.00 in0.0 mm 0.00 in/hr0.0 mm/hr 0.15 in3.8 mm
10:45 PM 16.0°F-8.9°C 12.0°F-11.1°C 84% 6.0 mph NW9.7 kmh NW 8.0 mph12.9 kmh 29.95 in1014.2 mb 0.00 in0.0 mm 0.00 in/hr0.0 mm/hr 0.15 in3.8 mm
11:01 PM 15.9°F-8.9°C 11.9°F-11.2°C 84% 2.0 mph NW3.2 kmh NW 5.0 mph8.0 kmh 29.96 in1014.6 mb 0.00 in0.0 mm 0.00 in/hr0.0 mm/hr 0.15 in3.8 mm
11:15 PM 15.8°F-9.0°C 11.8°F-11.2°C 84% 2.0 mph NW3.2 kmh NW 5.0 mph8.0 kmh 29.97 in1014.9 mb 0.00 in0.0 mm 0.00 in/hr0.0 mm/hr 0.15 in3.8 mm
11:31 PM 15.7°F-9.1°C 12.0°F-11.1°C 85% 2.0 mph NW3.2 kmh NW 6.0 mph9.7 kmh 29.97 in1014.9 mb 0.00 in0.0 mm 0.00 in/hr0.0 mm/hr 0.15 in3.8 mm
11:45 PM 15.5°F-9.2°C 11.5°F-11.4°C 84% 3.0 mph NW4.8 kmh NW 6.0 mph9.7 kmh 29.98 in1015.2 mb 0.01 in0.3 mm 0.04 in/hr1.0 mm/hr 0.16 in4.1 mm